Time;durP1;ratioP1;P1;durP2;ratioP2;P2;SDS_P1;SDS_P2;PMS_P1;PMS_P2;Temp;Humidity;BMP_temperature;BMP_pressure;BME280_temperature;BME280_humidity;BME280_pressure;Samples;Min_cycle;Max_cycle;Signal;HPM_P1;HPM_P2
2021/06/20 00:00:34;;;;;;;9.48;5.40;;;27.50;66.80;;;;;;5047197;28;20060;-78
2021/06/20 00:03:01;;;;;;;11.00;5.20;;;27.50;66.60;;;;;;5024361;28;20355;-79
2021/06/20 00:05:42;;;;;;;11.05;5.22;;;27.50;66.50;;;;;;5022435;28;20574;-79
2021/06/20 00:08:07;;;;;;;13.00;5.43;;;27.50;66.30;;;;;;5031902;28;20022;-79
2021/06/20 00:10:35;;;;;;;14.18;5.20;;;27.50;66.40;;;;;;5028886;28;20032;-78
2021/06/20 00:13:01;;;;;;;11.50;5.70;;;27.50;66.70;;;;;;5023701;28;20029;-78
2021/06/20 00:15:28;;;;;;;12.70;5.82;;;27.50;66.90;;;;;;5022388;28;20163;-79
2021/06/20 00:17:53;;;;;;;9.45;5.07;;;27.50;67.60;;;;;;5031326;28;20406;-78
2021/06/20 00:20:23;;;;;;;12.98;5.82;;;27.50;68.00;;;;;;5034799;28;20100;-79
2021/06/20 00:22:49;;;;;;;14.05;5.50;;;27.50;69.00;;;;;;5045001;28;20060;-78
2021/06/20 00:25:16;;;;;;;10.02;5.55;;;27.50;69.40;;;;;;5044988;28;20051;-82
2021/06/20 00:27:42;;;;;;;12.82;5.55;;;27.50;69.90;;;;;;5023925;28;20036;-81
2021/06/20 00:30:11;;;;;;;11.10;5.25;;;27.50;70.40;;;;;;5053220;28;20029;-82
2021/06/20 00:32:37;;;;;;;13.65;5.70;;;27.50;70.40;;;;;;5024901;28;20035;-81
2021/06/20 00:35:04;;;;;;;10.63;5.50;;;27.50;70.30;;;;;;5047221;28;20030;-82
2021/06/20 00:37:30;;;;;;;10.52;5.25;;;27.50;70.20;;;;;;5021001;28;20025;-81
2021/06/20 00:39:56;;;;;;;14.85;5.03;;;27.50;70.10;;;;;;5053758;28;20029;-82
2021/06/20 00:42:21;;;;;;;15.20;5.05;;;27.50;69.90;;;;;;5035330;28;20067;-82
2021/06/20 00:44:49;;;;;;;18.70;5.10;;;27.40;69.90;;;;;;5029685;28;20057;-82
2021/06/20 00:47:17;;;;;;;16.52;5.25;;;27.40;69.50;;;;;;5043775;28;20107;-82
2021/06/20 00:49:43;;;;;;;10.18;5.22;;;27.40;69.70;;;;;;5050240;28;20029;-78
2021/06/20 00:52:08;;;;;;;14.25;5.70;;;27.30;70.20;;;;;;5038045;28;20037;-79
2021/06/20 00:54:35;;;;;;;12.95;5.57;;;27.30;71.20;;;;;;5048713;28;20036;-81
2021/06/20 00:57:01;;;;;;;15.40;5.35;;;27.30;71.10;;;;;;5035507;28;20454;-81
2021/06/20 00:59:29;;;;;;;15.02;5.18;;;27.20;71.30;;;;;;5035298;28;20036;-81
2021/06/20 01:01:55;;;;;;;16.88;5.35;;;27.20;71.20;;;;;;5035451;28;20029;-80
2021/06/20 01:04:20;;;;;;;16.23;5.00;;;27.10;70.60;;;;;;5035692;28;20036;-78
2021/06/20 01:06:46;;;;;;;15.27;4.70;;;27.00;70.50;;;;;;5033597;28;20075;-82
2021/06/20 01:09:12;;;;;;;13.98;4.90;;;27.00;70.40;;;;;;5039075;28;20474;-81
2021/06/20 01:11:38;;;;;;;15.15;5.05;;;27.00;70.50;;;;;;5038370;28;20029;-81
2021/06/20 01:14:04;;;;;;;12.35;4.70;;;26.90;70.30;;;;;;5039081;28;20044;-81
2021/06/20 01:16:30;;;;;;;12.63;4.70;;;26.90;70.30;;;;;;5038563;28;20080;-79
2021/06/20 01:18:57;;;;;;;12.40;4.30;;;26.80;70.30;;;;;;5039127;28;20056;-81
2021/06/20 01:21:23;;;;;;;11.43;4.55;;;26.70;70.50;;;;;;5038938;28;20033;-81
2021/06/20 01:23:49;;;;;;;15.10;4.47;;;26.70;70.50;;;;;;5038226;28;20743;-81
2021/06/20 01:26:14;;;;;;;14.77;4.63;;;26.60;70.70;;;;;;5038879;28;20111;-81
2021/06/20 01:28:51;;;;;;;10.80;4.45;;;26.60;70.90;;;;;;5038326;28;20079;-81
2021/06/20 01:31:20;;;;;;;17.35;4.10;;;26.50;70.90;;;;;;5038750;28;20110;-81
2021/06/20 01:33:46;;;;;;;12.75;3.90;;;26.50;71.00;;;;;;5055982;28;20087;-81
2021/06/20 01:36:12;;;;;;;17.60;4.80;;;26.40;71.10;;;;;;5038095;28;20032;-80
2021/06/20 01:38:39;;;;;;;16.98;4.50;;;26.40;71.50;;;;;;5036973;28;20032;-81
2021/06/20 01:41:06;;;;;;;17.27;4.40;;;26.30;71.50;;;;;;5038339;28;20025;-80
2021/06/20 01:43:32;;;;;;;13.95;4.40;;;26.20;71.70;;;;;;5034199;28;20061;-80
2021/06/20 01:45:57;;;;;;;17.17;4.20;;;26.20;71.80;;;;;;5034964;28;20052;-80
2021/06/20 01:48:23;;;;;;;15.10;4.20;;;26.20;72.40;;;;;;5035076;28;20454;-81
2021/06/20 01:50:49;;;;;;;11.38;4.00;;;26.20;71.60;;;;;;5034396;28;20109;-80
2021/06/20 01:53:16;;;;;;;11.88;3.42;;;26.10;71.40;;;;;;5034955;28;20531;-81
2021/06/20 01:55:45;;;;;;;8.45;3.30;;;26.10;71.40;;;;;;5034518;28;20071;-80
2021/06/20 01:58:13;;;;;;;8.15;2.92;;;26.10;71.20;;;;;;5034714;28;20128;-80
2021/06/20 02:00:43;;;;;;;13.20;3.50;;;26.00;70.80;;;;;;5054952;28;20074;-80
2021/06/20 02:03:11;;;;;;;9.88;2.80;;;26.00;70.40;;;;;;5055633;28;20040;-80
2021/06/20 02:05:38;;;;;;;7.60;2.63;;;25.90;70.40;;;;;;5037560;28;20032;-80
2021/06/20 02:08:04;;;;;;;6.75;2.45;;;25.90;70.40;;;;;;5037805;28;20025;-80
2021/06/20 02:10:30;;;;;;;8.70;2.72;;;25.90;70.10;;;;;;5055206;28;20504;-81
2021/06/20 02:12:56;;;;;;;10.55;3.10;;;25.90;69.80;;;;;;5055004;28;20517;-81
2021/06/20 02:15:23;;;;;;;6.47;2.22;;;25.80;69.60;;;;;;5037973;28;20120;-79
2021/06/20 02:17:48;;;;;;;9.20;2.72;;;25.70;69.60;;;;;;5037417;28;20117;-81
2021/06/20 02:20:18;;;;;;;9.05;2.30;;;25.80;69.60;;;;;;5037619;28;20029;-80
2021/06/20 02:22:45;;;;;;;8.07;2.15;;;25.70;69.40;;;;;;5037037;28;20029;-80
2021/06/20 02:25:14;;;;;;;12.23;2.65;;;25.70;69.70;;;;;;5037467;28;20032;-81
2021/06/20 02:27:40;;;;;;;9.60;2.35;;;25.70;69.90;;;;;;5036972;28;20049;-80
2021/06/20 02:30:07;;;;;;;5.97;2.30;;;25.60;70.00;;;;;;5037125;28;20025;-80
2021/06/20 02:32:33;;;;;;;9.07;2.30;;;25.60;70.20;;;;;;5054713;28;20029;-78
2021/06/20 02:34:59;;;;;;;8.63;2.63;;;25.60;70.40;;;;;;5037287;28;20115;-78
2021/06/20 02:37:26;;;;;;;9.85;3.38;;;25.60;70.60;;;;;;5054747;28;20052;-78
2021/06/20 02:39:52;;;;;;;9.77;2.88;;;25.60;70.70;;;;;;5036423;28;20025;-78
2021/06/20 02:42:18;;;;;;;6.78;2.72;;;25.50;70.90;;;;;;5036951;28;20466;-78
2021/06/20 02:44:45;;;;;;;9.18;3.00;;;25.50;71.20;;;;;;5036309;28;20064;-78
2021/06/20 02:47:12;;;;;;;10.35;2.72;;;25.50;71.40;;;;;;5036638;28;20478;-78
2021/06/20 02:49:39;;;;;;;12.02;2.80;;;25.40;71.60;;;;;;5035738;28;20369;-78
2021/06/20 02:52:06;;;;;;;14.00;2.65;;;25.40;72.00;;;;;;5036867;28;20158;-78
2021/06/20 02:54:32;;;;;;;10.00;2.83;;;25.30;72.10;;;;;;5054480;28;20037;-78
2021/06/20 02:56:58;;;;;;;8.30;3.10;;;25.30;72.20;;;;;;5035911;28;20036;-77
2021/06/20 02:59:24;;;;;;;10.00;3.40;;;25.30;72.30;;;;;;5036398;28;20029;-78
2021/06/20 03:01:50;;;;;;;11.13;3.17;;;25.30;72.40;;;;;;5035598;28;20037;-78
2021/06/20 03:04:15;;;;;;;10.93;2.88;;;25.30;72.50;;;;;;5054020;28;20028;-79
2021/06/20 03:06:41;;;;;;;14.32;3.40;;;25.30;72.30;;;;;;5036118;28;20028;-79
2021/06/20 03:09:07;;;;;;;7.82;3.17;;;25.30;72.50;;;;;;5054195;28;20469;-79
2021/06/20 03:11:40;;;;;;;9.18;2.95;;;25.30;72.50;;;;;;5054239;28;20513;-79
2021/06/20 03:14:06;;;;;;;8.07;2.70;;;25.30;72.40;;;;;;5036605;28;20470;-79
2021/06/20 03:16:33;;;;;;;7.65;2.65;;;25.20;72.30;;;;;;5036292;28;20024;-79
2021/06/20 03:18:59;;;;;;;9.65;2.40;;;25.30;71.90;;;;;;5036054;28;20032;-82
2021/06/20 03:21:24;;;;;;;9.07;2.80;;;25.20;71.30;;;;;;5053925;28;20048;-82
2021/06/20 03:23:50;;;;;;;9.80;2.88;;;25.10;71.30;;;;;;5053833;28;20443;-82
2021/06/20 03:26:16;;;;;;;11.13;2.78;;;25.10;71.60;;;;;;5054110;28;20025;-78
2021/06/20 03:28:41;;;;;;;9.55;2.45;;;25.10;71.00;;;;;;5035605;28;20025;-78
2021/06/20 03:31:07;;;;;;;7.88;2.38;;;25.00;70.30;;;;;;5036053;28;20032;-78
2021/06/20 03:33:34;;;;;;;5.53;1.67;;;24.90;70.40;;;;;;5036036;28;20033;-79
2021/06/20 03:36:00;;;;;;;6.43;2.00;;;24.80;70.30;;;;;;5035619;28;20110;-78
2021/06/20 03:38:25;;;;;;;6.97;2.00;;;24.80;70.20;;;;;;5036028;28;20083;-78
2021/06/20 03:40:51;;;;;;;6.50;1.90;;;24.80;69.70;;;;;;5034948;28;20033;-79
2021/06/20 03:43:17;;;;;;;9.35;1.73;;;24.90;69.10;;;;;;5035550;28;20135;-78
2021/06/20 03:45:43;;;;;;;8.93;2.00;;;24.80;69.00;;;;;;5035182;28;20025;-78
2021/06/20 03:48:08;;;;;;;7.20;1.50;;;24.70;69.20;;;;;;5053974;28;20440;-78
2021/06/20 03:50:34;;;;;;;2.65;1.63;;;24.70;69.40;;;;;;5035980;28;20381;-79
2021/06/20 03:53:00;;;;;;;9.30;1.80;;;24.70;69.40;;;;;;5034859;28;20056;-79
2021/06/20 03:55:25;;;;;;;6.25;1.77;;;24.60;69.70;;;;;;5053070;28;20037;-78
2021/06/20 03:57:51;;;;;;;7.00;1.80;;;24.70;69.50;;;;;;5035044;28;20033;-78
2021/06/20 04:00:17;;;;;;;4.55;1.60;;;24.70;69.60;;;;;;5052293;28;20024;-78
2021/06/20 04:02:43;;;;;;;10.75;2.13;;;24.70;69.80;;;;;;5052882;28;20032;-79
2021/06/20 04:05:14;;;;;;;5.53;1.70;;;24.60;70.50;;;;;;5053171;28;20029;-78
2021/06/20 04:07:41;;;;;;;5.22;1.88;;;24.60;71.20;;;;;;5035378;28;20029;-78
2021/06/20 04:10:07;;;;;;;9.35;2.60;;;24.60;71.70;;;;;;5035392;28;20029;-78
2021/06/20 04:12:33;;;;;;;5.85;1.85;;;24.60;71.90;;;;;;5035049;28;20037;-78
2021/06/20 04:14:59;;;;;;;8.02;2.08;;;24.60;71.90;;;;;;5034707;28;20314;-78
2021/06/20 04:17:26;;;;;;;9.00;2.10;;;24.60;72.00;;;;;;5035516;28;20025;-78
2021/06/20 04:19:52;;;;;;;6.47;2.20;;;24.60;72.10;;;;;;5034817;28;20057;-78
2021/06/20 04:22:18;;;;;;;7.32;2.22;;;24.50;72.40;;;;;;5035341;28;20064;-78
2021/06/20 04:24:43;;;;;;;8.02;2.60;;;24.60;72.10;;;;;;5051823;28;20541;-78
2021/06/20 04:27:09;;;;;;;4.28;1.90;;;24.60;72.20;;;;;;5035354;28;20025;-78
2021/06/20 04:29:35;;;;;;;4.60;1.80;;;24.60;72.20;;;;;;5052873;28;20059;-78
2021/06/20 04:32:01;;;;;;;7.43;2.10;;;24.60;72.20;;;;;;5034576;28;20072;-78
2021/06/20 04:34:26;;;;;;;5.68;2.08;;;24.60;72.00;;;;;;5034907;28;20033;-78
2021/06/20 04:36:52;;;;;;;8.35;2.33;;;24.70;72.10;;;;;;5034726;28;20470;-79
2021/06/20 04:39:18;;;;;;;8.35;2.08;;;24.70;72.10;;;;;;5035078;28;20489;-80
2021/06/20 04:41:44;;;;;;;8.13;1.83;;;24.70;70.70;;;;;;5034509;28;20116;-80
2021/06/20 04:47:07;;;;;;;3.45;1.65;;;24.80;69.40;;;;;;5008000;28;20033;-81
2021/06/20 04:49:33;;;;;;;5.25;1.65;;;24.80;68.90;;;;;;5052714;28;20031;-80
2021/06/20 04:51:59;;;;;;;4.25;1.15;;;24.80;68.40;;;;;;5034384;28;20059;-80
2021/06/20 04:54:24;;;;;;;4.85;1.40;;;24.80;67.90;;;;;;5034555;28;20036;-80
2021/06/20 04:56:50;;;;;;;3.97;1.50;;;24.80;67.70;;;;;;5051560;28;20025;-80
2021/06/20 04:59:16;;;;;;;5.03;1.45;;;24.80;67.90;;;;;;5052605;28;20025;-80
2021/06/20 05:01:41;;;;;;;6.57;1.65;;;24.70;67.90;;;;;;5051981;28;20044;-79
2021/06/20 05:04:08;;;;;;;7.78;1.63;;;24.70;67.70;;;;;;5034674;28;20063;-80
2021/06/20 05:06:34;;;;;;;3.88;1.23;;;24.60;68.00;;;;;;5035056;28;20029;-81
2021/06/20 05:08:59;;;;;;;4.28;1.50;;;24.70;67.70;;;;;;5052384;28;20025;-80
2021/06/20 05:11:25;;;;;;;5.38;1.30;;;24.70;66.60;;;;;;5036251;28;20051;-80
2021/06/20 05:13:51;;;;;;;5.20;1.20;;;24.70;66.70;;;;;;5037909;28;20077;-80
2021/06/20 05:16:16;;;;;;;3.67;1.55;;;24.70;66.00;;;;;;5039004;28;20025;-80
2021/06/20 05:18:42;;;;;;;3.65;1.20;;;24.70;66.00;;;;;;5038529;28;20394;-79
2021/06/20 05:21:08;;;;;;;5.22;1.27;;;24.70;66.30;;;;;;5037808;28;20021;-79
2021/06/20 05:23:33;;;;;;;2.70;1.48;;;24.60;66.00;;;;;;5038356;28;20029;-79
2021/06/20 05:25:59;;;;;;;3.90;1.02;;;24.60;66.30;;;;;;5055671;28;20459;-79
2021/06/20 05:28:25;;;;;;;2.33;1.02;;;24.50;66.50;;;;;;5037813;28;20482;-79
2021/06/20 05:30:50;;;;;;;1.77;1.02;;;24.40;66.40;;;;;;5037541;28;20367;-78
2021/06/20 05:33:18;;;;;;;3.40;1.20;;;24.50;66.60;;;;;;5038214;28;20029;-79
2021/06/20 05:35:44;;;;;;;2.03;1.00;;;24.50;66.80;;;;;;5038325;28;20025;-78
2021/06/20 05:38:11;;;;;;;3.03;0.90;;;24.60;66.20;;;;;;5055735;28;20116;-80
2021/06/20 05:40:38;;;;;;;3.05;1.15;;;24.50;66.60;;;;;;5037920;28;20087;-79
2021/06/20 05:43:04;;;;;;;3.65;1.40;;;24.50;66.70;;;;;;5037186;28;20044;-80
2021/06/20 05:45:30;;;;;;;1.75;0.98;;;24.60;66.00;;;;;;5038132;28;20032;-80
2021/06/20 05:47:56;;;;;;;3.78;1.20;;;24.70;65.70;;;;;;5055537;28;20025;-80
2021/06/20 05:50:22;;;;;;;1.65;0.80;;;24.70;65.60;;;;;;5055173;28;20385;-78
2021/06/20 05:52:47;;;;;;;5.13;1.40;;;24.70;65.30;;;;;;5037099;28;20496;-78
2021/06/20 05:55:13;;;;;;;5.70;1.30;;;24.70;65.20;;;;;;5055472;28;20032;-78
2021/06/20 05:57:39;;;;;;;2.83;1.10;;;24.70;65.40;;;;;;5054689;28;20432;-78
2021/06/20 06:00:08;;;;;;;4.70;1.17;;;24.70;64.80;;;;;;5054881;28;20029;-78
2021/06/20 06:02:34;;;;;;;1.20;0.80;;;24.80;64.70;;;;;;5038224;28;20029;-80
2021/06/20 06:04:59;;;;;;;4.75;1.08;;;24.80;64.60;;;;;;5037239;28;20486;-80
2021/06/20 06:07:25;;;;;;;2.92;1.30;;;24.80;64.50;;;;;;5037164;28;20063;-80
2021/06/20 06:09:51;;;;;;;3.83;1.52;;;24.70;64.70;;;;;;5036691;28;20092;-80
2021/06/20 06:12:19;;;;;;;5.28;1.00;;;24.70;64.70;;;;;;5055129;28;20128;-79
2021/06/20 06:14:45;;;;;;;2.60;1.15;;;24.70;64.50;;;;;;5037447;28;20078;-79
2021/06/20 06:17:10;;;;;;;4.00;0.82;;;24.70;64.70;;;;;;5036773;28;20033;-79
2021/06/20 06:19:36;;;;;;;5.30;1.25;;;24.70;64.70;;;;;;5055209;28;20100;-79
2021/06/20 06:22:02;;;;;;;2.80;0.98;;;24.80;64.70;;;;;;5036634;28;20032;-78
2021/06/20 06:24:27;;;;;;;3.67;1.00;;;24.80;64.90;;;;;;5036824;28;20025;-80
2021/06/20 06:26:53;;;;;;;1.52;0.80;;;24.90;64.80;;;;;;5037023;28;20032;-79
2021/06/20 06:29:18;;;;;;;1.70;0.90;;;24.90;64.90;;;;;;5037564;28;20036;-80
2021/06/20 06:31:44;;;;;;;3.08;1.00;;;25.00;64.10;;;;;;5055033;28;20462;-80
2021/06/20 06:34:10;;;;;;;4.97;0.98;;;25.00;63.60;;;;;;5036679;28;20023;-80
2021/06/20 06:36:37;;;;;;;3.63;1.10;;;25.00;63.70;;;;;;5037178;28;20119;-80
2021/06/20 06:39:03;;;;;;;2.05;0.82;;;25.00;63.60;;;;;;5036607;28;20025;-79
2021/06/20 06:41:30;;;;;;;3.20;0.75;;;25.00;64.00;;;;;;5055052;28;20021;-81
2021/06/20 06:43:56;;;;;;;1.88;1.30;;;25.00;64.10;;;;;;5036095;28;20057;-80
2021/06/20 06:46:21;;;;;;;6.65;1.80;;;25.00;64.10;;;;;;5037352;28;20033;-81
2021/06/20 06:48:47;;;;;;;2.40;1.30;;;25.00;63.70;;;;;;5037423;28;20121;-80
2021/06/20 06:51:12;;;;;;;1.92;1.10;;;25.10;63.60;;;;;;5036138;28;20021;-79
2021/06/20 06:53:38;;;;;;;4.03;1.45;;;25.00;63.60;;;;;;5036813;28;20029;-79
2021/06/20 06:56:04;;;;;;;4.82;0.90;;;24.90;64.10;;;;;;5036224;28;20041;-79
2021/06/20 06:58:30;;;;;;;3.42;0.98;;;24.90;64.70;;;;;;5035814;28;20152;-79
2021/06/20 07:00:55;;;;;;;4.68;1.38;;;24.90;64.10;;;;;;5036107;28;20032;-78
2021/06/20 07:03:21;;;;;;;3.45;1.15;;;24.90;64.00;;;;;;5036271;28;20402;-78
2021/06/20 07:05:46;;;;;;;3.45;1.05;;;24.90;64.50;;;;;;5036271;28;20021;-78
2021/06/20 07:08:12;;;;;;;2.25;1.17;;;24.90;64.80;;;;;;5036064;28;20032;-79
2021/06/20 07:10:38;;;;;;;1.02;0.90;;;24.90;65.10;;;;;;5036461;28;20031;-80
2021/06/20 07:13:04;;;;;;;4.63;1.30;;;25.00;65.00;;;;;;5036113;28;20025;-79
2021/06/20 07:15:30;;;;;;;2.95;1.17;;;24.90;64.50;;;;;;5036621;28;20036;-79
2021/06/20 07:17:56;;;;;;;3.33;1.30;;;24.90;65.00;;;;;;5053581;28;20108;-79
2021/06/20 07:20:21;;;;;;;4.13;1.02;;;24.90;65.30;;;;;;5036454;28;20500;-80
2021/06/20 07:22:49;;;;;;;3.60;1.30;;;24.90;65.50;;;;;;5036131;28;20029;-79
2021/06/20 07:25:18;;;;;;;5.15;1.33;;;25.00;65.50;;;;;;5035621;28;20029;-79
2021/06/20 07:27:44;;;;;;;2.85;1.20;;;25.00;65.10;;;;;;5035959;28;20025;-79
2021/06/20 07:30:13;;;;;;;2.00;1.10;;;25.00;65.10;;;;;;5035676;28;20025;-79
2021/06/20 07:32:39;;;;;;;2.42;1.25;;;24.90;65.30;;;;;;5036194;28;20449;-82
2021/06/20 07:35:06;;;;;;;6.50;1.40;;;24.90;65.20;;;;;;5034813;28;20052;-80
2021/06/20 07:37:32;;;;;;;5.70;1.13;;;25.00;65.00;;;;;;5054192;28;20530;-80
2021/06/20 07:39:58;;;;;;;3.20;1.10;;;25.10;65.30;;;;;;5035808;28;20120;-78
2021/06/20 07:42:24;;;;;;;2.65;1.08;;;25.10;65.20;;;;;;5035552;28;20025;-80
2021/06/20 07:44:50;;;;;;;2.70;1.30;;;25.20;65.10;;;;;;5035614;28;20098;-79
2021/06/20 07:47:16;;;;;;;1.63;1.23;;;25.30;64.20;;;;;;5035672;28;20031;-79
2021/06/20 07:49:41;;;;;;;3.05;1.23;;;25.30;64.50;;;;;;5036007;28;20032;-78
2021/06/20 07:52:07;;;;;;;3.70;1.08;;;25.40;64.50;;;;;;5035217;28;20037;-79
2021/06/20 07:54:32;;;;;;;1.67;1.13;;;25.50;64.80;;;;;;5053338;28;20060;-80
2021/06/20 07:56:58;;;;;;;2.45;1.33;;;25.50;63.90;;;;;;5035505;28;20074;-80
2021/06/20 07:59:24;;;;;;;4.30;1.27;;;25.60;63.80;;;;;;5035691;28;20405;-82
2021/06/20 08:01:49;;;;;;;2.17;1.40;;;25.60;63.40;;;;;;5036119;28;20031;-80
2021/06/20 08:04:15;;;;;;;4.35;1.20;;;25.70;63.80;;;;;;5035593;28;20032;-83
2021/06/20 08:06:41;;;;;;;3.47;1.40;;;25.70;63.90;;;;;;5035857;28;20385;-80
2021/06/20 08:09:06;;;;;;;2.55;1.42;;;25.80;64.10;;;;;;5053157;28;20024;-79
2021/06/20 08:11:34;;;;;;;4.47;1.27;;;25.80;63.40;;;;;;5035858;28;20120;-79
2021/06/20 08:14:00;;;;;;;2.47;1.27;;;25.70;62.90;;;;;;5054253;28;20048;-79
2021/06/20 08:16:26;;;;;;;2.60;1.13;;;25.80;62.50;;;;;;5050190;28;20074;-79
2021/06/20 08:18:52;;;;;;;4.82;1.15;;;25.80;62.30;;;;;;5035591;28;20037;-79
2021/06/20 08:21:18;;;;;;;2.67;1.42;;;25.80;62.20;;;;;;5034172;28;20056;-79
2021/06/20 08:23:44;;;;;;;2.70;1.40;;;25.80;62.50;;;;;;5035099;28;20025;-78
2021/06/20 08:26:10;;;;;;;1.35;1.10;;;25.80;62.40;;;;;;5034483;28;20120;-78
2021/06/20 08:28:38;;;;;;;2.40;1.00;;;25.70;62.20;;;;;;5052639;28;20032;-81
2021/06/20 08:31:04;;;;;;;2.85;1.40;;;25.70;62.40;;;;;;5052133;28;20025;-81
2021/06/20 08:33:32;;;;;;;2.95;1.20;;;25.70;62.80;;;;;;5035461;28;20377;-81
2021/06/20 08:35:58;;;;;;;3.42;1.40;;;25.60;61.80;;;;;;5034678;28;20025;-81
2021/06/20 08:38:24;;;;;;;2.67;1.35;;;25.70;62.10;;;;;;5034995;28;20025;-81
2021/06/20 08:40:50;;;;;;;5.28;1.20;;;25.60;62.90;;;;;;5035123;28;20029;-82
2021/06/20 08:43:16;;;;;;;1.58;1.05;;;25.50;63.00;;;;;;5046200;28;20075;-82
2021/06/20 08:45:41;;;;;;;4.05;1.48;;;25.50;63.60;;;;;;5035217;28;20025;-82
2021/06/20 08:48:11;;;;;;;2.70;1.10;;;25.60;64.00;;;;;;5055937;28;20025;-81
2021/06/20 08:50:37;;;;;;;4.30;1.25;;;25.60;64.00;;;;;;5038982;28;20108;-81
2021/06/20 08:53:02;;;;;;;1.65;1.30;;;25.70;64.00;;;;;;5038175;28;20139;-81
2021/06/20 08:55:28;;;;;;;2.63;1.20;;;25.70;63.30;;;;;;5039002;28;20029;-81
2021/06/20 08:58:00;;;;;;;4.85;1.48;;;25.80;62.60;;;;;;5039337;28;20097;-81
2021/06/20 09:00:26;;;;;;;4.85;1.30;;;25.90;62.90;;;;;;5050190;28;20028;-79
2021/06/20 09:02:59;;;;;;;4.38;1.50;;;25.90;61.70;;;;;;5058132;28;20028;-77
2021/06/20 09:05:26;;;;;;;4.53;1.23;;;25.90;61.40;;;;;;5058198;28;20024;-78
2021/06/20 09:07:51;;;;;;;4.35;1.08;;;26.00;61.40;;;;;;5057932;28;20044;-78
2021/06/20 09:10:20;;;;;;;3.65;1.10;;;26.10;61.70;;;;;;5058200;28;20063;-79
2021/06/20 09:12:51;;;;;;;2.63;1.10;;;26.20;62.00;;;;;;5058754;28;20024;-79
2021/06/20 09:15:22;;;;;;;4.43;1.13;;;26.20;61.80;;;;;;5041844;28;20037;-81
2021/06/20 09:17:56;;;;;;;3.88;1.40;;;26.10;61.80;;;;;;5056916;28;20025;-81
2021/06/20 09:20:39;;;;;;;3.05;1.20;;;26.20;61.80;;;;;;5038363;28;20035;-81
2021/06/20 09:23:09;;;;;;;4.57;1.38;;;26.10;62.70;;;;;;5037905;28;20124;-79
2021/06/20 09:25:36;;;;;;;1.17;1.08;;;26.10;62.70;;;;;;5038264;28;20031;-79
2021/06/20 09:28:03;;;;;;;5.47;1.50;;;26.10;63.00;;;;;;5055663;28;20470;-80
2021/06/20 09:30:31;;;;;;;2.53;1.10;;;26.20;63.80;;;;;;5038147;28;20021;-80
2021/06/20 09:32:58;;;;;;;2.97;1.17;;;26.30;62.90;;;;;;5038430;28;20082;-79
2021/06/20 09:35:26;;;;;;;3.03;1.67;;;26.10;63.20;;;;;;5056182;28;20029;-79
2021/06/20 09:37:56;;;;;;;3.70;1.17;;;26.20;63.40;;;;;;5037910;28;20197;-78
2021/06/20 09:40:25;;;;;;;2.60;1.10;;;26.40;62.90;;;;;;5037052;28;20036;-79
2021/06/20 09:42:51;;;;;;;3.67;1.45;;;26.30;63.00;;;;;;5048535;28;20178;-79
2021/06/20 09:45:30;;;;;;;3.70;1.67;;;26.30;62.30;;;;;;5032890;28;20025;-78
2021/06/20 09:47:56;;;;;;;2.95;1.50;;;26.30;62.70;;;;;;5054719;28;20029;-78
2021/06/20 09:50:35;;;;;;;4.57;1.35;;;26.20;62.50;;;;;;5058114;28;20058;-78
2021/06/20 09:53:01;;;;;;;6.28;1.50;;;26.10;62.30;;;;;;5056050;28;20111;-78
2021/06/20 09:55:26;;;;;;;2.72;1.08;;;25.90;62.60;;;;;;5075658;28;20118;-79
2021/06/20 09:57:52;;;;;;;3.50;1.30;;;25.90;63.70;;;;;;5055496;28;20109;-78
2021/06/20 10:00:18;;;;;;;2.35;1.17;;;25.90;64.20;;;;;;5072714;28;20120;-79
2021/06/20 10:02:44;;;;;;;3.83;1.40;;;25.90;63.80;;;;;;5056636;28;20048;-79
2021/06/20 10:05:11;;;;;;;4.97;1.40;;;25.90;64.40;;;;;;5056970;28;20020;-79
2021/06/20 10:07:38;;;;;;;4.45;1.27;;;26.00;63.70;;;;;;5056466;28;20031;-79
2021/06/20 10:10:06;;;;;;;2.75;1.20;;;26.20;64.80;;;;;;5056637;28;20016;-79
2021/06/20 10:12:32;;;;;;;3.58;1.27;;;26.30;64.50;;;;;;5073265;28;20527;-79
2021/06/20 10:15:00;;;;;;;3.08;1.60;;;26.50;64.50;;;;;;5045839;28;20032;-80
2021/06/20 10:17:35;;;;;;;2.55;1.20;;;26.60;63.40;;;;;;5053831;28;20021;-80
2021/06/20 10:20:12;;;;;;;2.00;0.95;;;26.50;62.60;;;;;;5037702;28;20021;-79
2021/06/20 10:22:41;;;;;;;2.65;1.17;;;26.60;63.20;;;;;;5052142;28;20120;-78
2021/06/20 10:25:23;;;;;;;2.47;1.45;;;26.60;62.60;;;;;;5054003;28;20027;-78
2021/06/20 10:27:59;;;;;;;3.50;1.15;;;26.70;61.40;;;;;;5054965;28;20445;-81
2021/06/20 10:30:25;;;;;;;4.07;1.80;;;26.80;61.90;;;;;;5058105;28;20044;-82
2021/06/20 10:32:51;;;;;;;5.13;1.60;;;26.90;61.80;;;;;;5056637;28;20035;-80
2021/06/20 10:35:23;;;;;;;3.65;1.67;;;27.00;61.90;;;;;;5057539;28;20025;-81
2021/06/20 10:37:53;;;;;;;3.47;1.50;;;27.10;62.00;;;;;;5055045;28;20031;-81
2021/06/20 10:40:26;;;;;;;1.70;1.23;;;27.10;62.00;;;;;;5057555;28;20244;-81
2021/06/20 10:42:54;;;;;;;2.53;1.42;;;27.20;62.50;;;;;;5057737;28;20024;-81
2021/06/20 10:45:32;;;;;;;3.40;1.55;;;27.20;62.90;;;;;;5052599;28;20461;-78
2021/06/20 10:48:11;;;;;;;4.28;1.50;;;27.30;62.00;;;;;;5052944;28;20048;-79
2021/06/20 10:50:39;;;;;;;3.45;1.42;;;27.30;60.50;;;;;;5039714;28;20021;-78
2021/06/20 10:53:05;;;;;;;5.25;1.55;;;27.30;61.60;;;;;;5056633;28;20024;-79
2021/06/20 10:55:43;;;;;;;2.78;1.50;;;27.40;61.40;;;;;;5058505;28;20035;-79
2021/06/20 10:58:24;;;;;;;2.83;1.02;;;27.40;60.70;;;;;;5036147;28;20028;-80
2021/06/20 11:01:10;;;;;;;2.95;1.30;;;27.50;62.10;;;;;;5050788;28;20178;-79
2021/06/20 11:03:39;;;;;;;2.63;1.40;;;27.60;61.20;;;;;;5055326;28;20127;-79
2021/06/20 11:06:05;;;;;;;6.00;1.60;;;27.50;61.40;;;;;;5054549;28;20017;-79
2021/06/20 11:08:52;;;;;;;3.58;1.40;;;27.50;61.40;;;;;;5055429;28;20024;-79
2021/06/20 11:11:30;;;;;;;3.25;1.38;;;27.50;61.10;;;;;;5054414;28;20028;-79
2021/06/20 11:13:56;;;;;;;2.25;1.50;;;27.50;61.40;;;;;;5052018;28;20432;-79
2021/06/20 11:16:31;;;;;;;3.15;1.30;;;27.50;62.10;;;;;;5042468;28;20020;-79
2021/06/20 11:19:18;;;;;;;2.83;1.55;;;27.50;61.10;;;;;;5062767;28;20046;-79
2021/06/20 11:21:52;;;;;;;2.28;1.60;;;27.50;61.10;;;;;;5068968;28;20032;-79
2021/06/20 11:24:24;;;;;;;3.35;1.67;;;27.60;62.00;;;;;;5036548;28;20028;-81
2021/06/20 11:26:52;;;;;;;3.35;1.65;;;27.70;62.20;;;;;;5055555;28;20021;-78
2021/06/20 11:29:18;;;;;;;2.17;1.50;;;27.70;60.80;;;;;;5058861;28;20027;-78
2021/06/20 11:31:52;;;;;;;3.33;1.13;;;27.60;61.20;;;;;;5048381;28;20029;-77
2021/06/20 11:34:18;;;;;;;4.60;1.75;;;27.60;61.20;;;;;;5048121;28;20033;-75
2021/06/20 11:36:44;;;;;;;1.98;1.10;;;27.70;61.80;;;;;;5040117;28;20078;-75
2021/06/20 11:39:12;;;;;;;3.05;1.83;;;27.70;61.50;;;;;;5040317;28;20032;-76
2021/06/20 11:41:52;;;;;;;5.45;1.50;;;27.70;61.90;;;;;;5047798;28;20032;-77
2021/06/20 11:44:19;;;;;;;5.23;1.50;;;27.70;61.70;;;;;;5047197;28;20056;-79
2021/06/20 11:46:47;;;;;;;3.03;1.40;;;27.60;62.00;;;;;;5040067;28;20021;-77
2021/06/20 11:49:18;;;;;;;4.63;1.80;;;27.60;62.50;;;;;;5052970;28;20031;-77
2021/06/20 11:51:46;;;;;;;162.27;83.95;;;27.60;63.00;;;;;;5053842;28;20074;-79
2021/06/20 11:54:26;;;;;;;33.45;19.90;;;27.60;64.20;;;;;;5072034;28;20042;-78
2021/06/20 11:57:04;;;;;;;8.65;4.00;;;27.70;64.40;;;;;;5054615;28;20033;-79
2021/06/20 11:59:42;;;;;;;4.75;2.75;;;27.70;64.10;;;;;;5052643;28;20488;-78
2021/06/20 12:02:14;;;;;;;3.47;1.90;;;27.60;62.80;;;;;;5037469;28;20050;-79
2021/06/20 12:04:45;;;;;;;5.10;1.70;;;27.70;63.70;;;;;;5054073;28;20035;-79
2021/06/20 12:07:12;;;;;;;2.65;1.52;;;27.60;62.00;;;;;;5053271;28;20047;-78
2021/06/20 12:09:39;;;;;;;4.22;1.70;;;27.70;63.40;;;;;;5052171;28;20469;-78
2021/06/20 12:12:11;;;;;;;4.32;1.60;;;27.70;63.90;;;;;;5053089;28;20226;-78
2021/06/20 12:14:37;;;;;;;2.33;1.50;;;27.80;64.50;;;;;;5048229;28;20571;-76
2021/06/20 12:17:05;;;;;;;5.10;1.73;;;27.90;64.40;;;;;;5052212;28;20078;-79
2021/06/20 12:19:34;;;;;;;6.78;2.13;;;28.10;63.80;;;;;;5055690;28;20021;-77
2021/06/20 12:22:11;;;;;;;4.22;1.50;;;28.20;64.90;;;;;;5035498;28;20029;-77
2021/06/20 12:24:46;;;;;;;4.00;1.70;;;28.30;64.30;;;;;;5037993;28;20036;-78
2021/06/20 12:27:14;;;;;;;7.10;1.90;;;28.30;63.20;;;;;;5039572;28;20559;-77
2021/06/20 12:29:41;;;;;;;5.13;2.85;;;28.40;62.80;;;;;;5053799;28;20020;-78
2021/06/20 12:32:14;;;;;;;4.25;2.17;;;28.50;63.10;;;;;;5056441;28;20431;-78
2021/06/20 12:34:52;;;;;;;6.20;2.00;;;28.60;63.30;;;;;;5056461;28;20025;-78
2021/06/20 12:37:19;;;;;;;5.60;3.58;;;28.60;63.00;;;;;;5057590;28;20035;-79
2021/06/20 12:39:49;;;;;;;8.20;2.70;;;28.60;62.80;;;;;;5057865;28;20032;-78
2021/06/20 12:42:15;;;;;;;6.28;2.40;;;28.70;63.20;;;;;;5057323;28;20028;-78
2021/06/20 12:44:49;;;;;;;9.48;4.30;;;28.70;62.30;;;;;;5052332;28;20106;-77
2021/06/20 12:47:18;;;;;;;10.73;4.30;;;28.70;63.20;;;;;;5045561;28;20025;-79
2021/06/20 12:49:50;;;;;;;11.30;3.55;;;28.80;63.50;;;;;;5054646;28;20059;-79